createdAt,value
2022-11-10T00:00:30.331Z,82.79
2022-11-10T00:03:15.743Z,81.08
2022-11-10T00:06:05.713Z,81.97
2022-11-10T00:08:50.940Z,82.63
2022-11-10T00:11:36.584Z,83.91
2022-11-10T00:14:40.284Z,81.88
2022-11-10T00:17:25.550Z,84.01
2022-11-10T00:20:11.776Z,84.98
2022-11-10T00:22:57.307Z,85.41
2022-11-10T00:25:42.714Z,84.84
2022-11-10T00:28:30.871Z,83.68
2022-11-10T00:31:16.314Z,81.88
2022-11-10T00:34:01.661Z,80.56
2022-11-10T00:36:46.976Z,80.57
2022-11-10T00:39:35.278Z,80.89
2022-11-10T00:42:20.803Z,80.99
2022-11-10T00:45:07.495Z,81.28
2022-11-10T00:47:59.459Z,81.60
2022-11-10T00:50:46.756Z,81.91
2022-11-10T00:53:32.233Z,81.95
2022-11-10T00:56:17.828Z,81.87
2022-11-10T00:59:03.204Z,82.03
2022-11-10T01:01:48.244Z,82.76
2022-11-10T01:04:33.652Z,83.04
2022-11-10T01:07:18.977Z,83.18
2022-11-10T01:10:05.221Z,84.60
2022-11-10T01:12:50.583Z,83.17
2022-11-10T01:15:40.012Z,83.92
2022-11-10T01:18:25.432Z,84.41
2022-11-10T01:21:11.196Z,83.61
2022-11-10T01:23:56.999Z,83.03
2022-11-10T01:26:42.291Z,83.84
2022-11-10T01:29:27.602Z,84.64
2022-11-10T01:32:12.671Z,84.28
2022-11-10T01:34:57.673Z,84.84
2022-11-10T01:37:43.329Z,84.72
2022-11-10T01:40:29.790Z,86.16
2022-11-10T01:43:15.826Z,84.44
2022-11-10T01:46:12.419Z,84.21
2022-11-10T01:49:02.492Z,84.52
2022-11-10T01:52:01.300Z,84.71
2022-11-10T01:54:48.740Z,86.24
2022-11-10T01:57:35.152Z,85.84
2022-11-10T02:00:20.925Z,87.14
2022-11-10T02:03:26.057Z,88.27
2022-11-10T02:06:12.983Z,88.68
2022-11-10T02:08:59.724Z,87.38
2022-11-10T02:11:47.493Z,85.80
2022-11-10T02:14:33.161Z,83.96
2022-11-10T02:17:18.683Z,84.36
2022-11-10T02:20:09.940Z,85.55
2022-11-10T02:22:55.370Z,85.59
2022-11-10T02:25:40.856Z,85.66
2022-11-10T02:28:27.303Z,85.63
2022-11-10T02:31:12.836Z,85.77
2022-11-10T02:33:58.170Z,85.34
2022-11-10T02:36:43.808Z,85.18
2022-11-10T02:39:28.909Z,85.83
2022-11-10T02:42:15.309Z,85.65
2022-11-10T02:45:00.344Z,85.77
2022-11-10T02:47:45.841Z,86.43
2022-11-10T02:50:30.801Z,86.07
2022-11-10T02:53:15.886Z,86.88
2022-11-10T02:56:00.932Z,87.30
2022-11-10T02:58:46.128Z,88.64
2022-11-10T03:01:31.661Z,89.79
2022-11-10T03:04:16.896Z,89.45
2022-11-10T03:07:02.175Z,89.07
2022-11-10T03:09:47.246Z,89.14
2022-11-10T03:12:32.856Z,90.19
2022-11-10T03:15:18.112Z,89.57
2022-11-10T03:18:04.829Z,90.06
2022-11-10T03:20:50.215Z,90.57
2022-11-10T03:23:36.220Z,90.23
2022-11-10T03:26:22.554Z,90.64
2022-11-10T03:29:08.129Z,88.64
2022-11-10T03:31:53.354Z,88.05
2022-11-10T03:34:38.745Z,88.21
2022-11-10T03:37:24.017Z,87.52
2022-11-10T03:40:09.618Z,87.49
2022-11-10T03:42:55.214Z,87.75
2022-11-10T03:45:42.422Z,88.93
2022-11-10T03:48:27.803Z,88.94
2022-11-10T03:51:13.102Z,90.34
2022-11-10T03:54:09.653Z,90.61
2022-11-10T03:56:59.082Z,91.99
2022-11-10T03:59:47.613Z,92.64
2022-11-10T04:02:59.997Z,92.16
2022-11-10T04:06:03.616Z,92.08
2022-11-10T04:09:00.795Z,92.34
2022-11-10T04:12:04.431Z,92.51
2022-11-10T04:15:08.354Z,92.27
2022-11-10T04:17:53.807Z,91.10
2022-11-10T04:20:39.249Z,91.17
2022-11-10T04:23:27.235Z,91.88
2022-11-10T04:26:29.723Z,90.20
2022-11-10T04:29:19.777Z,89.92
2022-11-10T04:32:05.276Z,91.01
2022-11-10T04:34:50.923Z,89.23
2022-11-10T04:37:36.628Z,87.63
2022-11-10T04:40:21.886Z,86.62
2022-11-10T04:43:07.299Z,87.58
2022-11-10T04:45:52.444Z,87.41
2022-11-10T04:48:37.839Z,87.61
2022-11-10T04:51:26.029Z,87.72
2022-11-10T04:54:11.792Z,87.73
2022-11-10T04:56:57.355Z,87.96
2022-11-10T04:59:42.607Z,87.11
2022-11-10T05:02:27.964Z,88.17
2022-11-10T05:05:13.416Z,88.34
2022-11-10T05:07:59.073Z,88.17
2022-11-10T05:10:44.447Z,88.86
2022-11-10T05:13:30.559Z,90.31
2022-11-10T05:16:15.940Z,89.92
2022-11-10T05:19:01.683Z,89.42
2022-11-10T05:21:46.757Z,88.98
2022-11-10T05:24:32.365Z,89.13
2022-11-10T05:27:17.717Z,90.13
2022-11-10T05:30:03.619Z,92.30
2022-11-10T05:32:48.736Z,92.63
2022-11-10T05:35:34.875Z,91.54
2022-11-10T05:38:20.028Z,92.23
2022-11-10T05:41:05.364Z,92.28
2022-11-10T05:43:50.840Z,90.67
2022-11-10T05:46:36.137Z,90.02
2022-11-10T05:49:21.544Z,90.33
2022-11-10T05:52:08.186Z,91.20
2022-11-10T05:54:55.360Z,92.11
2022-11-10T05:57:51.091Z,91.43
2022-11-10T06:00:37.515Z,92.14
2022-11-10T06:03:23.366Z,92.11
2022-11-10T06:06:09.324Z,88.91
2022-11-10T06:08:56.381Z,88.21
2022-11-10T06:11:41.971Z,88.26
2022-11-10T06:14:27.428Z,88.84
2022-11-10T06:17:12.560Z,90.52
2022-11-10T06:19:57.655Z,92.17
2022-11-10T06:22:43.567Z,93.25
2022-11-10T06:25:34.520Z,92.98
2022-11-10T06:28:19.920Z,92.44
2022-11-10T06:31:05.425Z,89.87
2022-11-10T06:33:50.851Z,90.19
2022-11-10T06:36:36.126Z,88.97
2022-11-10T06:39:21.552Z,90.08
2022-11-10T06:42:07.052Z,90.29
2022-11-10T06:44:52.056Z,90.99
2022-11-10T06:47:37.600Z,90.57
2022-11-10T06:50:23.130Z,91.71
2022-11-10T06:53:09.626Z,91.64
2022-11-10T06:55:54.860Z,90.89
2022-11-10T06:58:40.132Z,92.36
2022-11-10T07:01:26.660Z,91.48
2022-11-10T07:04:21.049Z,90.78
2022-11-10T07:07:06.643Z,91.93
2022-11-10T07:09:52.150Z,92.02
2022-11-10T07:12:37.311Z,91.36
2022-11-10T07:15:22.485Z,91.45
2022-11-10T07:18:09.063Z,92.12
2022-11-10T07:20:54.473Z,91.76
2022-11-10T07:23:39.721Z,90.43
2022-11-10T07:26:25.663Z,90.83
2022-11-10T07:29:10.849Z,90.31
2022-11-10T07:31:56.481Z,91.55
2022-11-10T07:34:42.239Z,91.77
2022-11-10T07:37:29.709Z,91.47
2022-11-10T07:40:15.372Z,88.95
2022-11-10T07:43:01.545Z,89.79
2022-11-10T07:45:46.609Z,87.64
2022-11-10T07:48:32.004Z,88.32
2022-11-10T07:51:17.313Z,89.07
2022-11-10T07:54:02.913Z,86.86
2022-11-10T07:56:48.471Z,84.77
2022-11-10T07:59:33.540Z,83.99
2022-11-10T08:02:18.747Z,83.60
2022-11-10T08:05:04.843Z,83.13
2022-11-10T08:07:49.963Z,83.47
2022-11-10T08:10:35.987Z,85.46
2022-11-10T08:13:21.779Z,82.99
2022-11-10T08:16:07.524Z,83.88
2022-11-10T08:18:52.885Z,83.44
2022-11-10T08:21:38.527Z,82.40
2022-11-10T08:24:24.085Z,82.64
2022-11-10T08:27:09.546Z,79.06
2022-11-10T08:29:54.778Z,74.46
2022-11-10T08:32:40.105Z,72.82
2022-11-10T08:35:27.185Z,71.54
2022-11-10T08:38:16.692Z,72.47
2022-11-10T08:41:02.060Z,74.19
2022-11-10T08:43:47.781Z,76.33
2022-11-10T08:46:33.133Z,77.44
2022-11-10T08:49:18.605Z,78.90
2022-11-10T08:52:04.261Z,79.96
2022-11-10T08:54:49.646Z,80.14
2022-11-10T08:57:35.045Z,78.71
2022-11-10T09:00:20.282Z,78.94
2022-11-10T09:03:07.325Z,78.99
2022-11-10T09:05:57.970Z,79.70
2022-11-10T09:08:43.989Z,80.83
2022-11-10T09:11:30.773Z,79.84
2022-11-10T09:14:15.861Z,78.65
2022-11-10T09:17:01.144Z,78.70
2022-11-10T09:19:46.345Z,79.46
2022-11-10T09:22:31.938Z,78.76
2022-11-10T09:25:17.152Z,79.16
2022-11-10T09:28:04.089Z,78.99
2022-11-10T09:30:51.683Z,78.37
2022-11-10T09:33:36.924Z,78.94
2022-11-10T09:36:22.606Z,78.59
2022-11-10T09:39:08.067Z,77.44
2022-11-10T09:41:53.541Z,76.85
2022-11-10T09:44:47.317Z,76.80
2022-11-10T09:47:58.233Z,78.11
2022-11-10T09:50:50.519Z,77.73
2022-11-10T09:53:45.138Z,76.52
2022-11-10T09:56:33.318Z,76.13
2022-11-10T09:59:33.286Z,75.17
2022-11-10T10:02:38.148Z,74.84
2022-11-10T10:06:02.507Z,75.86
2022-11-10T10:09:15.816Z,75.29
2022-11-10T10:12:24.409Z,74.38
2022-11-10T10:16:04.024Z,71.48
2022-11-10T10:19:11.373Z,68.19
2022-11-10T10:22:25.308Z,66.01
2022-11-10T10:25:20.789Z,68.88
2022-11-10T10:28:21.014Z,70.67
2022-11-10T10:31:26.558Z,71.03
2022-11-10T10:34:15.900Z,71.94
2022-11-10T10:37:01.798Z,72.79
2022-11-10T10:39:50.184Z,70.85
2022-11-10T10:42:37.549Z,70.84
2022-11-10T10:45:25.494Z,71.16
2022-11-10T10:48:29.192Z,70.93
2022-11-10T10:51:31.321Z,71.69
2022-11-10T10:54:28.677Z,71.00
2022-11-10T10:57:29.168Z,70.75
2022-11-10T11:00:17.732Z,69.55
2022-11-10T11:03:07.726Z,69.14
2022-11-10T11:06:19.950Z,68.90
2022-11-10T11:09:14.975Z,69.12
2022-11-10T11:12:06.583Z,68.72
2022-11-10T11:14:53.836Z,68.07
2022-11-10T11:17:40.313Z,68.11
2022-11-10T11:20:36.337Z,68.10
2022-11-10T11:24:04.129Z,67.85
2022-11-10T11:27:10.190Z,68.48
2022-11-10T11:30:05.946Z,67.45
2022-11-10T11:32:50.970Z,67.71
2022-11-10T11:36:01.655Z,67.58
2022-11-10T11:38:55.911Z,67.26
2022-11-10T11:42:04.415Z,67.14
2022-11-10T11:44:58.704Z,67.27
2022-11-10T11:47:49.989Z,68.40
2022-11-10T11:50:51.032Z,68.51
2022-11-10T11:54:08.917Z,68.63
2022-11-10T11:57:03.840Z,68.67
2022-11-10T12:00:14.065Z,68.66
2022-11-10T12:03:16.689Z,69.40
2022-11-10T12:06:27.148Z,67.87
2022-11-10T12:09:27.655Z,66.94
2022-11-10T12:12:44.036Z,66.75
2022-11-10T12:15:53.283Z,67.14
2022-11-10T12:18:49.465Z,67.38
2022-11-10T12:22:06.572Z,67.15
2022-11-10T12:25:08.896Z,66.81
2022-11-10T12:28:03.262Z,67.17
2022-11-10T12:30:56.396Z,67.27
2022-11-10T12:33:49.889Z,67.03
2022-11-10T12:36:35.471Z,66.70
2022-11-10T12:39:25.080Z,66.34
2022-11-10T12:42:18.835Z,66.30
2022-11-10T12:45:17.533Z,66.76
2022-11-10T12:48:04.129Z,67.28
2022-11-10T12:50:51.887Z,66.09
2022-11-10T12:53:39.945Z,65.30
2022-11-10T12:56:35.653Z,65.27
2022-11-10T12:59:20.816Z,65.55
2022-11-10T13:02:23.905Z,66.15
2022-11-10T13:05:15.196Z,66.26
2022-11-10T13:08:27.402Z,65.47
2022-11-10T13:11:12.702Z,64.85
2022-11-10T13:14:00.492Z,65.39
2022-11-10T13:16:56.553Z,64.78
2022-11-10T13:19:50.449Z,65.49
2022-11-10T13:22:40.878Z,65.75
2022-11-10T13:25:38.437Z,65.23
2022-11-10T13:28:49.076Z,66.49
2022-11-10T13:31:34.171Z,66.34
2022-11-10T13:34:19.795Z,65.97
2022-11-10T13:37:29.934Z,66.21
2022-11-10T13:40:23.978Z,66.11
2022-11-10T13:43:19.661Z,66.77
2022-11-10T13:46:05.594Z,66.35
2022-11-10T13:49:19.090Z,67.03
2022-11-10T13:52:13.790Z,68.05
2022-11-10T13:54:59.082Z,65.52
2022-11-10T13:58:00.107Z,65.30
2022-11-10T14:01:12.344Z,65.47
2022-11-10T14:04:02.187Z,66.11
2022-11-10T14:06:54.947Z,65.03
2022-11-10T14:09:47.976Z,64.27
2022-11-10T14:12:46.420Z,63.38
2022-11-10T14:15:40.550Z,63.12
2022-11-10T14:18:37.073Z,62.72
2022-11-10T14:21:46.963Z,63.11
2022-11-10T14:24:39.368Z,64.06
2022-11-10T14:27:28.264Z,63.78
2022-11-10T14:30:27.905Z,63.12
2022-11-10T14:33:14.771Z,63.64
2022-11-10T14:36:04.985Z,62.87
2022-11-10T14:38:52.624Z,62.81
2022-11-10T14:41:46.727Z,62.75
2022-11-10T14:44:36.554Z,64.09
2022-11-10T14:47:32.985Z,64.89
2022-11-10T14:50:24.856Z,66.27
2022-11-10T14:53:48.735Z,66.37
2022-11-10T14:56:36.683Z,66.98
2022-11-10T14:59:24.129Z,66.78
2022-11-10T15:02:15.631Z,67.29
2022-11-10T15:05:02.610Z,67.01
2022-11-10T15:07:52.673Z,67.40
2022-11-10T15:10:39.676Z,67.63
2022-11-10T15:13:28.222Z,67.46
2022-11-10T15:16:34.575Z,68.59
2022-11-10T15:19:22.112Z,68.25
2022-11-10T15:22:19.900Z,68.55
2022-11-10T15:25:15.118Z,68.54
2022-11-10T15:28:04.122Z,68.91
2022-11-10T15:30:59.235Z,70.07
2022-11-10T15:33:47.687Z,69.57
2022-11-10T15:36:40.762Z,69.63
2022-11-10T15:39:27.235Z,69.72
2022-11-10T15:42:21.253Z,70.72
2022-11-10T15:45:07.176Z,69.38
2022-11-10T15:47:52.595Z,70.09
2022-11-10T15:50:38.218Z,70.51
2022-11-10T15:53:35.754Z,69.61
2022-11-10T15:56:24.087Z,69.65
2022-11-10T15:59:10.882Z,70.63
2022-11-10T16:01:56.581Z,70.36
2022-11-10T16:04:42.846Z,70.36
2022-11-10T16:07:30.359Z,71.27
2022-11-10T16:10:15.540Z,71.09
2022-11-10T16:13:00.734Z,72.43
2022-11-10T16:15:46.644Z,72.76
2022-11-10T16:18:32.124Z,71.94
2022-11-10T16:21:22.772Z,71.76
2022-11-10T16:24:08.547Z,73.20
2022-11-10T16:26:53.971Z,72.58
2022-11-10T16:29:40.138Z,72.87
2022-11-10T16:32:25.310Z,73.05
2022-11-10T16:35:15.069Z,73.11
2022-11-10T16:38:00.276Z,72.21
2022-11-10T16:40:54.922Z,73.16
2022-11-10T16:43:41.697Z,73.79
2022-11-10T16:46:29.849Z,73.71
2022-11-10T16:49:23.293Z,74.65
2022-11-10T16:52:16.842Z,75.11
2022-11-10T16:55:02.005Z,75.51
2022-11-10T16:57:48.854Z,75.35
2022-11-10T17:00:37.012Z,74.65
2022-11-10T17:03:33.541Z,73.85
2022-11-10T17:06:21.447Z,73.20
2022-11-10T17:09:21.392Z,72.50
2022-11-10T17:12:06.604Z,73.73
2022-11-10T17:14:52.468Z,73.55
2022-11-10T17:17:39.865Z,74.77
2022-11-10T17:20:32.058Z,75.06
2022-11-10T17:23:21.782Z,75.04
2022-11-10T17:26:12.338Z,74.30
2022-11-10T17:28:57.800Z,75.23
2022-11-10T17:31:44.218Z,75.81
2022-11-10T17:34:29.355Z,76.18
2022-11-10T17:37:14.602Z,76.29
2022-11-10T17:40:07.253Z,76.66
2022-11-10T17:42:52.672Z,77.07
2022-11-10T17:45:38.148Z,77.13
2022-11-10T17:48:23.497Z,77.74
2022-11-10T17:51:17.977Z,77.92
2022-11-10T17:54:06.722Z,78.08
2022-11-10T17:56:51.752Z,77.78
2022-11-10T17:59:36.761Z,77.73
2022-11-10T18:02:22.346Z,77.83
2022-11-10T18:05:10.951Z,78.25
2022-11-10T18:07:56.227Z,78.31
2022-11-10T18:10:52.327Z,77.51
2022-11-10T18:13:38.999Z,77.12
2022-11-10T18:16:24.400Z,77.73
2022-11-10T18:19:11.147Z,78.21
2022-11-10T18:21:56.404Z,78.58
2022-11-10T18:24:42.450Z,78.75
2022-11-10T18:27:28.513Z,78.40
2022-11-10T18:30:14.529Z,78.95
2022-11-10T18:33:04.814Z,78.60
2022-11-10T18:35:49.892Z,78.26
2022-11-10T18:38:35.884Z,78.93
2022-11-10T18:41:40.096Z,78.98
2022-11-10T18:44:25.261Z,79.23
2022-11-10T18:47:12.890Z,79.14
2022-11-10T18:49:58.078Z,78.98
2022-11-10T18:52:43.654Z,78.94
2022-11-10T18:55:29.145Z,78.40
2022-11-10T18:58:14.291Z,78.27
2022-11-10T19:01:07.671Z,77.82
2022-11-10T19:03:53.372Z,78.60
2022-11-10T19:06:39.574Z,79.59
2022-11-10T19:09:24.899Z,79.21
2022-11-10T19:12:11.430Z,79.28
2022-11-10T19:14:56.753Z,79.78
2022-11-10T19:17:41.777Z,79.83
2022-11-10T19:20:27.321Z,80.79
2022-11-10T19:23:12.621Z,80.98
2022-11-10T19:26:04.712Z,81.24
2022-11-10T19:28:50.343Z,81.40
2022-11-10T19:31:35.933Z,80.13
2022-11-10T19:34:21.336Z,80.01
2022-11-10T19:37:07.193Z,80.34
2022-11-10T19:39:52.155Z,80.84
2022-11-10T19:42:37.596Z,81.09
2022-11-10T19:45:23.311Z,81.02
2022-11-10T19:48:08.733Z,80.41
2022-11-10T19:50:55.436Z,80.30
2022-11-10T19:53:42.092Z,78.33
2022-11-10T19:56:31.648Z,79.66
2022-11-10T19:59:19.318Z,80.02
2022-11-10T20:02:05.281Z,79.71
2022-11-10T20:05:09.619Z,80.03
2022-11-10T20:08:13.359Z,79.85
2022-11-10T20:11:01.059Z,80.00
2022-11-10T20:13:51.958Z,80.27
2022-11-10T20:16:39.591Z,80.54
2022-11-10T20:19:24.611Z,80.85
2022-11-10T20:22:12.548Z,80.53
2022-11-10T20:24:58.192Z,79.44
2022-11-10T20:27:43.859Z,79.43
2022-11-10T20:30:29.908Z,80.57
2022-11-10T20:33:14.863Z,80.46
2022-11-10T20:36:15.956Z,80.62
2022-11-10T20:39:04.642Z,80.89
2022-11-10T20:41:52.718Z,81.39
2022-11-10T20:44:38.078Z,81.50
2022-11-10T20:47:23.630Z,81.94
2022-11-10T20:50:14.811Z,80.44
2022-11-10T20:53:00.998Z,78.94
2022-11-10T20:55:54.155Z,78.96
2022-11-10T20:58:39.922Z,79.15
2022-11-10T21:01:25.534Z,79.60
2022-11-10T21:04:11.080Z,80.02
2022-11-10T21:06:56.563Z,80.80
2022-11-10T21:09:41.576Z,81.00
2022-11-10T21:12:45.303Z,80.85
2022-11-10T21:15:30.818Z,81.23
2022-11-10T21:18:16.576Z,81.84
2022-11-10T21:21:05.315Z,81.84
2022-11-10T21:23:56.981Z,81.20
2022-11-10T21:26:42.720Z,81.67
2022-11-10T21:29:27.718Z,81.08
2022-11-10T21:32:13.056Z,81.97
2022-11-10T21:34:58.199Z,81.77
2022-11-10T21:37:43.923Z,81.75
2022-11-10T21:40:29.013Z,81.17
2022-11-10T21:43:14.479Z,81.38
2022-11-10T21:46:03.868Z,81.50
2022-11-10T21:48:53.520Z,80.58
2022-11-10T21:51:39.401Z,81.80
2022-11-10T21:54:24.509Z,81.06
2022-11-10T21:57:10.199Z,81.08
2022-11-10T21:59:55.289Z,80.88
2022-11-10T22:02:40.433Z,81.66
2022-11-10T22:05:25.714Z,81.23
2022-11-10T22:08:12.216Z,81.33
2022-11-10T22:11:16.006Z,82.25
2022-11-10T22:14:19.991Z,82.23
2022-11-10T22:17:33.894Z,82.14
2022-11-10T22:20:19.433Z,82.28
2022-11-10T22:23:06.002Z,82.21
2022-11-10T22:25:51.017Z,80.84
2022-11-10T22:28:36.259Z,81.11
2022-11-10T22:31:21.611Z,81.48
2022-11-10T22:34:07.067Z,81.10
2022-11-10T22:36:54.572Z,81.40
2022-11-10T22:39:58.495Z,81.79
2022-11-10T22:43:03.249Z,81.77
2022-11-10T22:45:49.152Z,82.22
2022-11-10T22:48:34.398Z,82.37
2022-11-10T22:51:20.001Z,81.77
2022-11-10T22:54:09.335Z,81.95
2022-11-10T22:56:55.183Z,82.37
2022-11-10T22:59:40.772Z,82.98
2022-11-10T23:02:25.836Z,82.69
2022-11-10T23:05:10.978Z,82.80
2022-11-10T23:07:56.337Z,83.00
2022-11-10T23:10:41.669Z,82.57
2022-11-10T23:13:27.837Z,82.04
2022-11-10T23:16:15.458Z,82.15
2022-11-10T23:19:01.424Z,82.73
2022-11-10T23:21:46.919Z,82.79
2022-11-10T23:24:32.213Z,82.73
2022-11-10T23:27:19.140Z,82.56
2022-11-10T23:30:04.667Z,82.97
2022-11-10T23:32:49.805Z,83.14
2022-11-10T23:35:35.667Z,83.22
2022-11-10T23:38:21.143Z,82.90
2022-11-10T23:41:09.695Z,82.71
2022-11-10T23:43:55.282Z,83.01
2022-11-10T23:46:40.533Z,82.28
2022-11-10T23:49:27.323Z,83.27
2022-11-10T23:52:12.581Z,82.63
2022-11-10T23:54:57.796Z,82.50
2022-11-10T23:57:46.320Z,82.56
